Teixeira, Brazil
Current Conditions -  °F | °C
As of 6:00 PM on Friday 19 Dec 2014 (Local Time) from SBKG Reporting Station
Scattered Clouds Scattered Clouds  
Wind Chill: 77°   Ceiling: Unl
Heat Index: 79°   Visibility: 6mi
Dew Point: 66°   Wind: 17mph
Humidity: 69%   Direction: 70°ENE
Pressure: 29.94"   Gusts: NA
Location:  7.22°S, 37.25°W
Report Text: SBKG 192100Z 07015KT 9999 SCT020 25/19 Q1014
Loading
Personal Weather Stations






























Interactive Weather Map New forecast layout! Learn more

10-Day Weather Forecast

Advertisements
Track Severe Weather on mobile